Time;durP1;ratioP1;P1;durP2;ratioP2;P2;SDS_P1;SDS_P2;PMS_P1;PMS_P2;Temp;Humidity;BMP_temperature;BMP_pressure;BME280_temperature;BME280_humidity;BME280_pressure;Samples;Min_cycle;Max_cycle;Signal;HPM_P1;HPM_P2
2022/11/09 00:01:32;;;;;;;;;;;14.70;99.90;;;;;;5113073;28;19905;-40
2022/11/09 00:03:59;;;;;;;;;;;14.70;99.90;;;;;;5103415;28;19915;-39
2022/11/09 00:06:25;;;;;;;;;;;14.80;99.90;;;;;;5104377;28;19992;-39
2022/11/09 00:08:51;;;;;;;;;;;14.70;99.90;;;;;;5112339;28;20348;-39
2022/11/09 00:11:16;;;;;;;;;;;14.80;99.90;;;;;;5105394;28;19908;-39
2022/11/09 00:13:42;;;;;;;;;;;14.80;99.90;;;;;;5097728;28;20470;-39
2022/11/09 00:16:09;;;;;;;;;;;14.80;99.90;;;;;;5100396;28;19923;-40
2022/11/09 00:18:35;;;;;;;;;;;14.80;99.90;;;;;;5104464;28;19915;-39
2022/11/09 00:21:07;;;;;;;;;;;14.80;99.90;;;;;;5096152;28;20355;-37
2022/11/09 00:23:33;;;;;;;;;;;14.80;99.90;;;;;;5104051;28;20287;-40
2022/11/09 00:25:59;;;;;;;;;;;14.80;99.90;;;;;;5096051;28;19915;-39
2022/11/09 00:28:25;;;;;;;;;;;14.80;99.90;;;;;;5098337;28;20391;-48
2022/11/09 00:30:50;;;;;;;;;;;14.80;99.90;;;;;;5100629;28;19977;-38
2022/11/09 00:33:16;;;;;;;;;;;14.80;99.90;;;;;;5097801;28;19930;-38
2022/11/09 00:35:41;;;;;;;;;;;14.80;99.90;;;;;;5107919;28;19915;-37
2022/11/09 00:38:07;;;;;;;;;;;14.80;99.90;;;;;;5126609;27;19907;-40
2022/11/09 00:40:32;;;;;;;;;;;14.70;99.90;;;;;;5105760;28;19915;-38
2022/11/09 00:42:57;;;;;;;;;;;14.70;99.90;;;;;;5100214;27;19923;-38
2022/11/09 00:45:23;;;;;;;;;;;14.60;99.90;;;;;;5105827;27;19916;-39
2022/11/09 00:47:48;;;;;;;;;;;14.60;99.90;;;;;;5102906;28;19912;-39
2022/11/09 00:50:14;;;;;;;;;;;14.60;99.90;;;;;;5105790;27;19907;-38
2022/11/09 00:52:40;;;;;;;;;;;14.50;99.90;;;;;;5101052;28;20321;-39
2022/11/09 00:55:05;;;;;;;;;;;14.50;99.90;;;;;;5105163;28;19957;-40
2022/11/09 00:57:31;;;;;;;;;;;14.50;99.90;;;;;;5099010;28;19908;-40
2022/11/09 00:59:56;;;;;;;;;;;14.40;99.90;;;;;;5105985;28;20279;-38
2022/11/09 01:02:22;;;;;;;;;;;14.40;99.90;;;;;;5115375;28;19956;-40
2022/11/09 01:04:47;;;;;;;;;;;14.30;99.90;;;;;;5114747;28;19915;-39
2022/11/09 01:07:13;;;;;;;;;;;14.30;99.90;;;;;;5097648;28;19908;-40
2022/11/09 01:09:38;;;;;;;;;;;14.30;99.90;;;;;;5105064;28;19916;-38
2022/11/09 01:12:04;;;;;;;;;;;14.20;99.90;;;;;;5101026;28;19936;-41
2022/11/09 01:14:29;;;;;;;;;;;14.30;99.90;;;;;;5110670;28;20375;-37
2022/11/09 01:16:55;;;;;;;;;;;14.20;99.90;;;;;;5114992;28;20014;-39
2022/11/09 01:19:20;;;;;;;;;;;14.20;99.90;;;;;;5115326;28;20688;-37
2022/11/09 01:21:46;;;;;;;;;;;14.20;99.90;;;;;;5099422;28;19919;-39
2022/11/09 01:24:11;;;;;;;;;;;14.20;99.90;;;;;;5110450;28;20348;-38
2022/11/09 01:26:37;;;;;;;;;;;14.10;99.90;;;;;;5104623;28;19908;-40
2022/11/09 01:29:02;;;;;;;;;;;14.10;99.90;;;;;;5104640;28;20370;-39
2022/11/09 01:31:28;;;;;;;;;;;14.10;99.90;;;;;;5103184;28;20375;-39
2022/11/09 01:33:54;;;;;;;;;;;14.00;99.90;;;;;;5104857;28;20010;-38
2022/11/09 01:36:21;;;;;;;;;;;14.00;99.90;;;;;;5098653;28;19908;-41
2022/11/09 01:38:47;;;;;;;;;;;14.00;99.90;;;;;;5099784;28;20279;-38
2022/11/09 01:41:14;;;;;;;;;;;14.00;99.90;;;;;;5103111;28;19907;-40
2022/11/09 01:43:40;;;;;;;;;;;14.00;99.90;;;;;;5105618;28;19950;-39
2022/11/09 01:46:09;;;;;;;;;;;14.00;99.90;;;;;;5115255;28;20335;-39
2022/11/09 01:48:43;;;;;;;;;;;14.00;99.90;;;;;;5101533;28;19908;-38
2022/11/09 01:51:13;;;;;;;;;;;13.90;99.90;;;;;;5107799;28;19907;-38
2022/11/09 01:53:40;;;;;;;;;;;13.90;99.90;;;;;;5108583;28;19972;-39
2022/11/09 01:56:07;;;;;;;;;;;13.90;99.90;;;;;;5094785;28;19908;-38
2022/11/09 01:58:36;;;;;;;;;;;13.90;99.90;;;;;;5094105;28;19908;-39
2022/11/09 02:01:02;;;;;;;;;;;14.00;99.90;;;;;;5106983;28;20363;-38
2022/11/09 02:03:28;;;;;;;;;;;14.00;99.90;;;;;;5098671;28;19918;-38
2022/11/09 02:05:53;;;;;;;;;;;14.00;99.90;;;;;;5096789;28;19914;-39
2022/11/09 02:08:21;;;;;;;;;;;13.90;99.90;;;;;;5097187;28;19907;-38
2022/11/09 02:11:05;;;;;;;;;;;13.90;99.90;;;;;;5100281;28;19994;-41
2022/11/09 02:13:31;;;;;;;;;;;13.90;99.90;;;;;;5113723;28;20342;-38
2022/11/09 02:15:57;;;;;;;;;;;13.90;99.90;;;;;;5101694;28;19958;-39
2022/11/09 02:18:22;;;;;;;;;;;13.90;99.90;;;;;;5102769;28;20376;-42
2022/11/09 02:20:49;;;;;;;;;;;14.00;99.90;;;;;;5105809;28;19908;-41
2022/11/09 02:23:15;;;;;;;;;;;14.00;99.90;;;;;;5096482;28;19915;-45
2022/11/09 02:25:42;;;;;;;;;;;14.00;99.90;;;;;;5109382;28;20375;-38
2022/11/09 02:28:07;;;;;;;;;;;14.00;99.90;;;;;;5098162;28;19939;-39
2022/11/09 02:30:34;;;;;;;;;;;13.90;99.90;;;;;;5095961;28;19948;-55
2022/11/09 02:32:59;;;;;;;;;;;13.90;99.90;;;;;;5109979;28;20360;-41
2022/11/09 02:35:25;;;;;;;;;;;13.90;99.90;;;;;;5098957;28;19918;-35
2022/11/09 02:37:50;;;;;;;;;;;13.90;99.90;;;;;;5095139;28;19908;-38
2022/11/09 02:43:09;;;;;;;;;;;13.90;99.90;;;;;;5113978;28;19964;-40
2022/11/09 02:45:35;;;;;;;;;;;13.80;99.90;;;;;;5103171;28;19915;-39
2022/11/09 02:48:01;;;;;;;;;;;13.80;99.90;;;;;;5094135;28;19908;-39
2022/11/09 02:50:27;;;;;;;;;;;13.90;99.90;;;;;;5095362;28;19974;-34
2022/11/09 02:52:52;;;;;;;;;;;13.80;99.90;;;;;;5108518;28;19915;-39
2022/11/09 02:55:18;;;;;;;;;;;13.90;99.90;;;;;;5097159;28;19907;-30
2022/11/09 02:57:43;;;;;;;;;;;13.90;99.90;;;;;;5103970;28;20019;-31
2022/11/09 03:00:09;;;;;;;;;;;13.90;99.90;;;;;;5102292;28;20379;-32
2022/11/09 03:02:35;;;;;;;;;;;13.90;99.90;;;;;;5098700;28;19920;-34
2022/11/09 03:05:00;;;;;;;;;;;13.80;99.90;;;;;;5105033;28;19959;-31
2022/11/09 03:07:26;;;;;;;;;;;13.80;99.90;;;;;;5099323;28;19914;-31
2022/11/09 03:09:52;;;;;;;;;;;13.70;99.90;;;;;;5105577;28;19908;-34
2022/11/09 03:12:27;;;;;;;;;;;13.70;99.90;;;;;;5097464;28;19943;-32
2022/11/09 03:14:53;;;;;;;;;;;13.70;99.90;;;;;;5097772;28;20394;-33
2022/11/09 03:17:19;;;;;;;;;;;13.70;99.90;;;;;;5093067;28;19908;-31
2022/11/09 03:19:44;;;;;;;;;;;13.70;99.90;;;;;;5095201;28;19915;-37
2022/11/09 03:22:10;;;;;;;;;;;13.70;99.90;;;;;;5106092;28;20368;-43
2022/11/09 03:24:35;;;;;;;;;;;13.60;99.90;;;;;;5097201;28;19923;-31
2022/11/09 03:29:45;;;;;;;;;;;13.60;99.90;;;;;;5113154;28;20332;-30
2022/11/09 03:32:11;;;;;;;;;;;13.60;99.90;;;;;;5112109;28;19911;-34
2022/11/09 03:34:36;;;;;;;;;;;13.60;99.90;;;;;;5113932;28;19950;-30
2022/11/09 03:37:02;;;;;;;;;;;13.60;99.90;;;;;;5110523;28;19943;-30
2022/11/09 03:39:27;;;;;;;;;;;13.60;99.90;;;;;;5099605;28;19915;-35
2022/11/09 03:41:53;;;;;;;;;;;13.60;99.90;;;;;;5093099;28;19918;-32
2022/11/09 03:44:19;;;;;;;;;;;13.50;99.90;;;;;;5109811;28;20006;-30
2022/11/09 03:46:45;;;;;;;;;;;13.50;99.90;;;;;;5110229;28;19911;-30
2022/11/09 03:49:10;;;;;;;;;;;13.50;99.90;;;;;;5095285;28;19915;-33
2022/11/09 03:51:36;;;;;;;;;;;13.50;99.90;;;;;;5096908;28;19907;-31
2022/11/09 03:54:01;;;;;;;;;;;13.50;99.90;;;;;;5096704;28;19907;-31
2022/11/09 03:56:45;;;;;;;;;;;13.50;99.90;;;;;;5103535;28;19912;-34
2022/11/09 03:59:11;;;;;;;;;;;13.50;99.90;;;;;;5106600;28;19908;-38
2022/11/09 04:01:36;;;;;;;;;;;13.40;99.90;;;;;;5099027;28;19915;-32
2022/11/09 04:04:02;;;;;;;;;;;13.40;99.90;;;;;;5098806;28;19908;-38
2022/11/09 04:06:27;;;;;;;;;;;13.50;99.90;;;;;;5094421;28;19977;-33
2022/11/09 04:08:53;;;;;;;;;;;13.40;99.90;;;;;;5107296;28;19908;-39
2022/11/09 04:11:18;;;;;;;;;;;13.40;99.90;;;;;;5090739;28;19916;-35
2022/11/09 04:13:44;;;;;;;;;;;13.40;99.90;;;;;;5093769;28;19914;-40
2022/11/09 04:16:09;;;;;;;;;;;13.40;99.90;;;;;;5102410;28;19924;-33
2022/11/09 04:18:35;;;;;;;;;;;13.30;99.90;;;;;;5106209;28;20431;-40
2022/11/09 04:21:00;;;;;;;;;;;13.30;99.90;;;;;;5105432;28;19947;-36
2022/11/09 04:23:26;;;;;;;;;;;13.30;99.90;;;;;;5095360;28;20380;-39
2022/11/09 04:25:52;;;;;;;;;;;13.20;99.90;;;;;;5096401;28;19911;-38
2022/11/09 04:28:18;;;;;;;;;;;13.20;99.90;;;;;;5108238;28;19915;-39
2022/11/09 04:30:43;;;;;;;;;;;13.20;99.90;;;;;;5114046;28;20368;-35
2022/11/09 04:33:09;;;;;;;;;;;13.30;99.90;;;;;;5111772;28;20422;-33
2022/11/09 04:35:35;;;;;;;;;;;13.20;99.90;;;;;;5102390;28;19912;-33
2022/11/09 04:38:02;;;;;;;;;;;13.20;99.90;;;;;;5112760;28;20355;-34
2022/11/09 04:40:28;;;;;;;;;;;13.20;99.90;;;;;;5107350;28;19912;-33
2022/11/09 04:42:54;;;;;;;;;;;13.30;99.90;;;;;;5122919;28;19957;-33
2022/11/09 04:45:20;;;;;;;;;;;13.20;99.90;;;;;;5112879;28;20335;-32
2022/11/09 04:47:46;;;;;;;;;;;13.20;99.90;;;;;;5095804;28;19994;-42
2022/11/09 04:50:12;;;;;;;;;;;13.20;99.90;;;;;;5096432;28;19955;-34
2022/11/09 04:52:37;;;;;;;;;;;13.20;99.90;;;;;;5110111;28;19911;-32
2022/11/09 04:55:03;;;;;;;;;;;13.10;99.90;;;;;;5099479;28;19947;-36
2022/11/09 04:57:29;;;;;;;;;;;13.10;99.90;;;;;;5093324;28;19912;-34
2022/11/09 04:59:54;;;;;;;;;;;13.20;99.90;;;;;;5096441;28;19953;-30
2022/11/09 05:02:20;;;;;;;;;;;13.10;99.90;;;;;;5106012;28;20364;-39
2022/11/09 05:04:45;;;;;;;;;;;13.10;99.90;;;;;;5099193;28;19915;-32
2022/11/09 05:07:11;;;;;;;;;;;13.10;99.90;;;;;;5097417;28;19916;-31
2022/11/09 05:09:36;;;;;;;;;;;13.10;99.90;;;;;;5114704;28;19907;-31
2022/11/09 05:12:02;;;;;;;;;;;13.00;99.90;;;;;;5098338;28;20352;-39
2022/11/09 05:14:27;;;;;;;;;;;13.00;99.90;;;;;;5111298;28;19911;-31
2022/11/09 05:16:53;;;;;;;;;;;13.00;99.90;;;;;;5113546;28;20367;-35
2022/11/09 05:19:18;;;;;;;;;;;13.00;99.90;;;;;;5095382;28;19915;-33
2022/11/09 05:21:44;;;;;;;;;;;13.00;99.90;;;;;;5104530;28;19946;-31
2022/11/09 05:24:10;;;;;;;;;;;13.00;99.90;;;;;;5100396;28;20379;-39
2022/11/09 05:26:36;;;;;;;;;;;12.90;99.90;;;;;;5107963;28;19919;-31
2022/11/09 05:29:08;;;;;;;;;;;12.90;99.90;;;;;;5096708;28;19908;-27
2022/11/09 05:31:34;;;;;;;;;;;13.00;99.90;;;;;;5105931;28;19914;-47
2022/11/09 05:34:00;;;;;;;;;;;13.00;99.90;;;;;;5114403;28;19908;-48
2022/11/09 05:36:26;;;;;;;;;;;13.00;99.90;;;;;;5108940;28;19908;-43
2022/11/09 05:38:52;;;;;;;;;;;13.00;99.90;;;;;;5099010;28;20272;-38
2022/11/09 05:41:18;;;;;;;;;;;13.00;99.90;;;;;;5103806;28;19908;-40
2022/11/09 05:43:44;;;;;;;;;;;13.00;99.90;;;;;;5107580;28;20003;-38
2022/11/09 05:46:09;;;;;;;;;;;13.00;99.90;;;;;;5097523;28;19908;-31
2022/11/09 05:48:35;;;;;;;;;;;12.90;99.90;;;;;;5116060;28;19959;-33
2022/11/09 05:51:01;;;;;;;;;;;12.90;99.90;;;;;;5105813;28;19904;-41
2022/11/09 05:53:27;;;;;;;;;;;12.80;99.90;;;;;;5099683;28;19907;-41
2022/11/09 05:55:52;;;;;;;;;;;12.90;99.90;;;;;;5112691;28;20316;-46
2022/11/09 05:58:18;;;;;;;;;;;12.80;99.90;;;;;;5109521;28;19908;-30
2022/11/09 06:00:43;;;;;;;;;;;12.80;99.90;;;;;;5093981;28;19911;-36
2022/11/09 06:03:10;;;;;;;;;;;12.80;99.90;;;;;;5098739;28;19965;-39
2022/11/09 06:05:36;;;;;;;;;;;12.80;99.90;;;;;;5101323;28;20469;-39
2022/11/09 06:08:02;;;;;;;;;;;12.80;99.90;;;;;;5102392;28;19908;-38
2022/11/09 06:10:28;;;;;;;;;;;12.80;99.90;;;;;;5106753;28;19910;-39
2022/11/09 06:12:53;;;;;;;;;;;12.80;99.90;;;;;;5113947;28;19908;-39
2022/11/09 06:15:19;;;;;;;;;;;12.80;99.90;;;;;;5106417;28;20403;-40
2022/11/09 06:17:49;;;;;;;;;;;12.90;99.90;;;;;;5094792;28;19912;-45
2022/11/09 06:20:15;;;;;;;;;;;12.80;99.90;;;;;;5098064;28;19964;-40
2022/11/09 06:22:40;;;;;;;;;;;12.90;99.90;;;;;;5109423;28;20359;-42
2022/11/09 06:25:06;;;;;;;;;;;12.90;99.90;;;;;;5098996;28;19908;-39
2022/11/09 06:27:32;;;;;;;;;;;12.90;99.90;;;;;;5094437;28;19995;-39
2022/11/09 06:29:57;;;;;;;;;;;12.90;99.90;;;;;;5099576;28;20325;-39
2022/11/09 06:32:23;;;;;;;;;;;12.80;99.90;;;;;;5099119;28;19908;-38
2022/11/09 06:34:48;;;;;;;;;;;12.80;99.90;;;;;;5109570;28;19944;-40
2022/11/09 06:37:16;;;;;;;;;;;12.80;99.90;;;;;;5108625;28;19908;-40
2022/11/09 06:39:42;;;;;;;;;;;12.80;99.90;;;;;;5096146;28;19908;-39
2022/11/09 06:42:07;;;;;;;;;;;12.80;99.90;;;;;;5109786;28;19934;-40
2022/11/09 06:44:33;;;;;;;;;;;12.80;99.90;;;;;;5098509;28;20447;-39
2022/11/09 06:46:58;;;;;;;;;;;12.90;99.90;;;;;;5106696;28;19995;-39
2022/11/09 06:49:24;;;;;;;;;;;12.90;99.90;;;;;;5108447;28;19916;-38
2022/11/09 06:51:49;;;;;;;;;;;13.00;99.90;;;;;;5099172;28;19908;-39
2022/11/09 06:54:15;;;;;;;;;;;13.00;99.90;;;;;;5109066;28;19917;-38
2022/11/09 06:56:40;;;;;;;;;;;13.00;99.90;;;;;;5109993;28;19951;-39
2022/11/09 06:59:06;;;;;;;;;;;13.00;99.90;;;;;;5096330;28;20425;-39
2022/11/09 07:01:32;;;;;;;;;;;13.00;99.90;;;;;;5097308;28;19930;-40
2022/11/09 07:03:57;;;;;;;;;;;13.00;99.90;;;;;;5095701;27;19999;-41
2022/11/09 07:06:23;;;;;;;;;;;13.00;99.90;;;;;;5100300;27;19908;-36
2022/11/09 07:08:48;;;;;;;;;;;13.00;99.90;;;;;;5101869;28;19986;-39
2022/11/09 07:11:18;;;;;;;;;;;13.00;99.90;;;;;;5089661;28;19919;-39
2022/11/09 07:13:44;;;;;;;;;;;13.00;99.90;;;;;;5094075;28;19904;-39
2022/11/09 07:16:11;;;;;;;;;;;13.00;99.90;;;;;;5093168;28;20291;-32
2022/11/09 07:18:36;;;;;;;;;;;13.10;99.90;;;;;;5095309;27;20364;-39
2022/11/09 07:21:05;;;;;;;;;;;13.10;99.90;;;;;;5123972;27;19998;-31
2022/11/09 07:23:32;;;;;;;;;;;13.10;99.90;;;;;;5106690;27;20283;-32
2022/11/09 07:25:57;;;;;;;;;;;13.10;99.90;;;;;;5095095;28;19939;-34
2022/11/09 07:28:23;;;;;;;;;;;13.10;99.90;;;;;;5104571;27;20382;-37
2022/11/09 07:30:51;;;;;;;;;;;13.10;99.90;;;;;;5102517;28;19916;-33
2022/11/09 07:33:17;;;;;;;;;;;13.10;99.90;;;;;;5110008;27;19907;-40
2022/11/09 07:35:43;;;;;;;;;;;13.10;99.90;;;;;;5127225;27;20275;-39
2022/11/09 07:38:08;;;;;;;;;;;13.10;99.90;;;;;;5101167;28;19994;-33
2022/11/09 07:40:34;;;;;;;;;;;13.20;99.90;;;;;;5093782;28;19980;-40
2022/11/09 07:43:00;;;;;;;;;;;13.20;99.90;;;;;;5108424;28;19972;-40
2022/11/09 07:45:27;;;;;;;;;;;13.30;99.90;;;;;;5107718;28;20430;-39
2022/11/09 07:47:57;;;;;;;;;;;13.30;99.90;;;;;;5101919;28;19912;-36
2022/11/09 07:50:22;;;;;;;;;;;13.30;99.90;;;;;;5103232;28;19950;-39
2022/11/09 07:52:48;;;;;;;;;;;13.30;99.90;;;;;;5098345;28;19947;-40
2022/11/09 07:55:13;;;;;;;;;;;13.30;99.90;;;;;;5098778;28;19908;-39
2022/11/09 07:57:39;;;;;;;;;;;13.30;99.90;;;;;;5099500;28;19908;-35
2022/11/09 08:00:04;;;;;;;;;;;13.30;99.90;;;;;;5096350;28;19934;-39
2022/11/09 08:02:30;;;;;;;;;;;13.30;99.90;;;;;;5101830;28;19919;-40
2022/11/09 08:04:55;;;;;;;;;;;13.30;99.90;;;;;;5093859;28;20410;-33
2022/11/09 08:07:22;;;;;;;;;;;13.30;99.90;;;;;;5098558;28;19911;-39
2022/11/09 08:09:48;;;;;;;;;;;13.30;99.90;;;;;;5100314;28;19907;-38
2022/11/09 08:12:13;;;;;;;;;;;13.30;99.90;;;;;;5108256;28;19908;-39
2022/11/09 08:14:39;;;;;;;;;;;13.20;99.90;;;;;;5105008;28;20002;-39
2022/11/09 08:17:04;;;;;;;;;;;13.20;99.90;;;;;;5102625;28;19912;-39
2022/11/09 08:19:30;;;;;;;;;;;13.30;99.90;;;;;;5093710;28;19915;-37
2022/11/09 08:21:56;;;;;;;;;;;13.30;99.90;;;;;;5091019;28;19916;-39
2022/11/09 08:24:22;;;;;;;;;;;13.30;99.90;;;;;;5098951;28;19908;-39
2022/11/09 08:26:47;;;;;;;;;;;13.40;99.90;;;;;;5090542;28;20033;-41
2022/11/09 08:29:14;;;;;;;;;;;13.40;99.90;;;;;;5093794;28;19914;-40
2022/11/09 08:31:40;;;;;;;;;;;13.50;99.90;;;;;;5097283;28;20364;-40
2022/11/09 08:34:09;;;;;;;;;;;13.60;99.90;;;;;;5115261;28;19914;-39
2022/11/09 08:36:35;;;;;;;;;;;13.70;99.90;;;;;;5111000;28;19990;-32
2022/11/09 08:39:00;;;;;;;;;;;13.70;99.90;;;;;;5116250;28;20010;-32
2022/11/09 08:41:27;;;;;;;;;;;13.80;99.90;;;;;;5102877;28;20279;-32
2022/11/09 08:43:53;;;;;;;;;;;13.80;99.90;;;;;;5103067;28;20378;-31
2022/11/09 08:46:18;;;;;;;;;;;13.70;99.90;;;;;;5101382;28;19908;-33
2022/11/09 08:48:44;;;;;;;;;;;13.80;99.90;;;;;;5105398;28;19915;-33
2022/11/09 08:51:09;;;;;;;;;;;13.80;99.90;;;;;;5097246;28;19908;-35
2022/11/09 08:53:34;;;;;;;;;;;13.80;99.90;;;;;;5099245;28;19912;-31
2022/11/09 08:56:00;;;;;;;;;;;13.80;99.90;;;;;;5100448;28;20364;-30
2022/11/09 08:58:26;;;;;;;;;;;13.90;99.90;;;;;;5105188;28;19953;-33
2022/11/09 09:00:51;;;;;;;;;;;13.90;99.90;;;;;;5112720;28;19914;-33
2022/11/09 09:03:17;;;;;;;;;;;13.90;99.90;;;;;;5108400;28;19912;-39
2022/11/09 09:05:42;;;;;;;;;;;14.00;99.90;;;;;;5098212;28;19908;-41
2022/11/09 09:08:10;;;;;;;;;;;14.10;99.90;;;;;;5105964;28;19950;-40
2022/11/09 09:10:36;;;;;;;;;;;14.10;99.90;;;;;;5098367;28;19989;-41
2022/11/09 09:13:02;;;;;;;;;;;14.20;99.90;;;;;;5106598;28;19956;-40
2022/11/09 09:15:27;;;;;;;;;;;14.20;99.90;;;;;;5097390;28;19920;-38
2022/11/09 09:17:53;;;;;;;;;;;14.20;99.90;;;;;;5111297;28;20418;-39
2022/11/09 09:20:18;;;;;;;;;;;14.20;99.90;;;;;;5098869;28;19916;-35
2022/11/09 09:22:44;;;;;;;;;;;14.20;99.90;;;;;;5108090;28;19922;-33
2022/11/09 09:25:10;;;;;;;;;;;14.20;99.90;;;;;;5114450;28;19908;-38
2022/11/09 09:27:35;;;;;;;;;;;14.10;99.90;;;;;;5096912;28;19914;-41
2022/11/09 09:30:02;;;;;;;;;;;14.20;99.90;;;;;;5094546;28;19908;-35
2022/11/09 09:32:28;;;;;;;;;;;14.10;99.90;;;;;;5106355;28;19911;-36
2022/11/09 09:34:54;;;;;;;;;;;14.20;99.90;;;;;;5111193;28;19907;-36
2022/11/09 09:37:19;;;;;;;;;;;14.20;99.90;;;;;;5107964;28;20023;-35
2022/11/09 09:39:45;;;;;;;;;;;14.10;99.90;;;;;;5107031;28;20371;-32
2022/11/09 09:42:22;;;;;;;;;;;14.10;99.90;;;;;;5105747;28;19942;-31
2022/11/09 09:44:48;;;;;;;;;;;14.20;99.90;;;;;;5114122;28;19958;-37
2022/11/09 09:47:16;;;;;;;;;;;14.30;99.90;;;;;;5098310;28;19951;-36
2022/11/09 09:49:56;;;;;;;;;;;14.20;99.90;;;;;;5098643;28;19915;-39
2022/11/09 09:52:43;;;;;;;;;;;14.20;99.90;;;;;;5099646;28;19908;-34
2022/11/09 09:55:23;;;;;;;;;;;14.30;99.90;;;;;;5095471;28;20390;-35
2022/11/09 09:57:57;;;;;;;;;;;14.40;99.90;;;;;;5096398;28;19915;-31
2022/11/09 10:00:24;;;;;;;;;;;14.50;99.90;;;;;;5105562;28;20469;-32
2022/11/09 10:02:51;;;;;;;;;;;14.50;99.90;;;;;;5102037;28;19919;-36
2022/11/09 10:05:18;;;;;;;;;;;14.50;99.90;;;;;;5094148;28;19959;-36
2022/11/09 10:08:01;;;;;;;;;;;14.50;99.90;;;;;;5095139;28;20382;-34
2022/11/09 10:10:35;;;;;;;;;;;14.60;99.90;;;;;;5094515;28;19908;-32
2022/11/09 10:13:04;;;;;;;;;;;14.60;99.90;;;;;;5104410;28;20391;-31
2022/11/09 10:15:32;;;;;;;;;;;14.50;99.90;;;;;;5101211;28;19916;-33
2022/11/09 10:18:00;;;;;;;;;;;14.50;99.90;;;;;;5102405;28;19908;-32
2022/11/09 10:20:26;;;;;;;;;;;14.50;99.90;;;;;;5103900;28;20389;-56
2022/11/09 10:23:00;;;;;;;;;;;14.30;99.90;;;;;;5099751;28;19953;-32
2022/11/09 10:25:26;;;;;;;;;;;14.30;99.90;;;;;;5095881;28;19998;-38
2022/11/09 10:27:56;;;;;;;;;;;14.40;99.90;;;;;;5108441;28;21154;-32
2022/11/09 10:30:23;;;;;;;;;;;14.60;99.90;;;;;;5101506;28;20383;-32
2022/11/09 10:33:12;;;;;;;;;;;14.80;99.90;;;;;;5106829;28;19908;-31
2022/11/09 10:35:47;;;;;;;;;;;15.00;99.90;;;;;;5101743;27;20317;-31
2022/11/09 10:38:16;;;;;;;;;;;15.00;99.90;;;;;;5095694;28;19908;-40
2022/11/09 10:40:48;;;;;;;;;;;14.90;99.90;;;;;;5110121;28;20283;-39
2022/11/09 10:43:14;;;;;;;;;;;15.00;99.90;;;;;;5110520;28;19924;-44
2022/11/09 10:45:41;;;;;;;;;;;15.10;99.90;;;;;;5113760;28;20379;-40
2022/11/09 10:48:08;;;;;;;;;;;15.20;99.90;;;;;;5112249;28;20007;-39
2022/11/09 10:50:36;;;;;;;;;;;15.20;99.90;;;;;;5109200;28;19908;-39
2022/11/09 10:53:18;;;;;;;;;;;15.10;99.90;;;;;;5111159;28;19943;-40
2022/11/09 10:55:51;;;;;;;;;;;15.00;99.90;;;;;;5099290;28;20283;-40
2022/11/09 10:58:33;;;;;;;;;;;14.90;99.90;;;;;;5104850;28;19961;-39
2022/11/09 11:01:03;;;;;;;;;;;14.90;99.90;;;;;;5096877;28;19908;-39
2022/11/09 11:03:31;;;;;;;;;;;14.80;99.90;;;;;;5099547;28;20027;-38
2022/11/09 11:06:01;;;;;;;;;;;14.80;99.90;;;;;;5095205;28;19961;-38
2022/11/09 11:08:26;;;;;;;;;;;14.80;99.90;;;;;;5094050;28;19908;-39
2022/11/09 11:11:04;;;;;;;;;;;14.80;99.90;;;;;;5097088;28;19927;-39
2022/11/09 11:13:30;;;;;;;;;;;14.80;99.90;;;;;;5099029;28;20364;-39
2022/11/09 11:15:58;;;;;;;;;;;14.90;99.90;;;;;;5093822;28;19966;-37
2022/11/09 11:18:25;;;;;;;;;;;14.90;99.90;;;;;;5095038;28;20342;-39
2022/11/09 11:21:03;;;;;;;;;;;14.90;99.90;;;;;;5100007;28;19943;-39
2022/11/09 11:23:29;;;;;;;;;;;14.90;99.90;;;;;;5105208;28;19915;-42
2022/11/09 11:25:58;;;;;;;;;;;14.80;99.90;;;;;;5093876;28;20002;-39
2022/11/09 11:28:39;;;;;;;;;;;14.80;99.90;;;;;;5094946;28;19940;-33
2022/11/09 11:31:08;;;;;;;;;;;14.80;99.90;;;;;;5093795;28;19914;-39
2022/11/09 11:33:34;;;;;;;;;;;14.80;99.90;;;;;;5097591;28;20348;-37
2022/11/09 11:36:09;;;;;;;;;;;14.70;99.90;;;;;;5111308;28;19904;-38
2022/11/09 11:38:36;;;;;;;;;;;14.60;99.90;;;;;;5095912;28;20434;-38
2022/11/09 11:41:08;;;;;;;;;;;14.50;99.90;;;;;;5092737;28;20020;-34
2022/11/09 11:44:02;;;;;;;;;;;14.30;99.90;;;;;;5106289;28;19964;-36
2022/11/09 11:46:36;;;;;;;;;;;14.10;99.90;;;;;;5034233;28;20491;-38
2022/11/09 11:49:22;;;;;;;;;;;13.80;99.90;;;;;;5094699;28;19973;-39
2022/11/09 11:51:47;;;;;;;;;;;13.40;99.90;;;;;;5087924;28;20411;-35
2022/11/09 11:54:31;;;;;;;;;;;13.20;99.90;;;;;;5096367;28;19999;-29
2022/11/09 11:57:26;;;;;;;;;;;13.10;99.90;;;;;;5107673;28;19914;-31
2022/11/09 12:00:02;;;;;;;;;;;13.10;99.90;;;;;;5094849;28;19915;-33
2022/11/09 12:02:43;;;;;;;;;;;13.20;99.90;;;;;;5099885;28;20347;-35
2022/11/09 12:05:33;;;;;;;;;;;13.40;99.90;;;;;;5111291;28;19907;-32
2022/11/09 12:08:05;;;;;;;;;;;13.50;99.90;;;;;;5118773;28;20368;-39
2022/11/09 12:10:33;;;;;;;;;;;13.60;99.90;;;;;;5116222;28;19907;-34
2022/11/09 12:13:11;;;;;;;;;;;13.60;99.90;;;;;;5110193;28;20355;-35
2022/11/09 12:15:49;;;;;;;;;;;13.60;99.90;;;;;;5100417;28;20403;-36
2022/11/09 12:18:14;;;;;;;;;;;13.70;99.90;;;;;;5105679;28;20296;-37
2022/11/09 12:23:58;;;;;;;;;;;13.80;99.90;;;;;;5115413;28;20322;-36
2022/11/09 12:26:34;;;;;;;;;;;13.80;99.90;;;;;;5106194;28;19916;-32
2022/11/09 12:29:00;;;;;;;;;;;13.90;99.90;;;;;;5115376;28;20249;-37
2022/11/09 12:31:33;;;;;;;;;;;13.90;99.90;;;;;;5113682;28;20002;-39
2022/11/09 12:34:01;;;;;;;;;;;13.90;99.90;;;;;;5109044;28;19915;-34
2022/11/09 12:36:50;;;;;;;;;;;14.00;99.90;;;;;;5117029;28;19920;-34
2022/11/09 12:39:21;;;;;;;;;;;14.00;99.90;;;;;;5111626;28;20280;-32
2022/11/09 12:41:47;;;;;;;;;;;14.10;99.90;;;;;;5109578;28;19915;-36
2022/11/09 12:44:19;;;;;;;;;;;14.10;99.90;;;;;;5117647;28;20245;-34
2022/11/09 12:46:47;;;;;;;;;;;14.20;99.90;;;;;;5113417;28;20359;-34
2022/11/09 12:49:29;;;;;;;;;;;14.40;99.90;;;;;;5105390;28;19908;-31
2022/11/09 12:51:54;;;;;;;;;;;14.50;99.90;;;;;;5109889;28;20367;-32
2022/11/09 12:54:20;;;;;;;;;;;14.70;99.90;;;;;;5113854;28;19908;-32
2022/11/09 12:56:51;;;;;;;;;;;14.80;99.90;;;;;;5098467;28;19908;-32
2022/11/09 12:59:26;;;;;;;;;;;14.80;99.90;;;;;;5111780;28;20359;-39
2022/11/09 13:01:53;;;;;;;;;;;14.80;99.90;;;;;;5118241;28;19908;-40
2022/11/09 13:04:20;;;;;;;;;;;14.90;99.90;;;;;;5107763;28;19908;-39
2022/11/09 13:07:04;;;;;;;;;;;15.10;99.90;;;;;;5113427;28;19908;-39
2022/11/09 13:09:30;;;;;;;;;;;15.20;99.90;;;;;;5099189;27;19985;-39
2022/11/09 13:11:55;;;;;;;;;;;15.20;99.90;;;;;;5098962;28;19933;-39
2022/11/09 13:14:21;;;;;;;;;;;15.10;99.90;;;;;;5098180;28;19908;-38
2022/11/09 13:16:49;;;;;;;;;;;15.10;99.90;;;;;;5114708;28;19946;-30
2022/11/09 13:19:33;;;;;;;;;;;14.90;99.90;;;;;;5111521;28;19907;-31
2022/11/09 13:22:19;;;;;;;;;;;14.80;99.90;;;;;;5103122;28;20320;-30
2022/11/09 13:24:47;;;;;;;;;;;14.80;99.90;;;;;;5091809;28;20006;-34
2022/11/09 13:27:39;;;;;;;;;;;14.70;99.90;;;;;;5108123;28;20382;-33
2022/11/09 13:30:29;;;;;;;;;;;14.70;99.90;;;;;;5109539;27;19919;-31
2022/11/09 13:33:09;;;;;;;;;;;14.80;99.90;;;;;;5095849;28;20386;-32
2022/11/09 13:35:41;;;;;;;;;;;14.80;99.90;;;;;;5096761;28;20397;-36
2022/11/09 13:38:15;;;;;;;;;;;14.70;99.90;;;;;;5113851;28;19912;-31
2022/11/09 13:40:47;;;;;;;;;;;14.80;99.90;;;;;;5107764;28;19908;-30
2022/11/09 13:43:12;;;;;;;;;;;14.80;99.90;;;;;;5113215;27;19912;-32
2022/11/09 13:45:47;;;;;;;;;;;14.80;99.90;;;;;;5120033;27;19915;-31
2022/11/09 13:48:21;;;;;;;;;;;14.80;99.90;;;;;;5116142;27;19907;-29
2022/11/09 13:50:51;;;;;;;;;;;14.80;99.90;;;;;;5118200;27;20388;-30
2022/11/09 13:53:27;;;;;;;;;;;14.80;99.90;;;;;;5109385;28;20382;-32
2022/11/09 13:55:52;;;;;;;;;;;14.80;99.90;;;;;;5102238;28;19914;-34
2022/11/09 13:58:28;;;;;;;;;;;14.80;99.90;;;;;;5111613;28;19912;-31
2022/11/09 14:00:53;;;;;;;;;;;14.70;99.90;;;;;;5110147;27;19915;-32
2022/11/09 14:03:19;;;;;;;;;;;14.60;99.90;;;;;;5100561;28;19911;-30
2022/11/09 14:05:47;;;;;;;;;;;14.60;99.90;;;;;;5095072;28;20347;-32
2022/11/09 14:08:21;;;;;;;;;;;14.50;99.90;;;;;;5098210;27;19922;-32
2022/11/09 14:11:08;;;;;;;;;;;14.50;99.90;;;;;;5098639;28;19957;-34
2022/11/09 14:13:43;;;;;;;;;;;14.50;99.90;;;;;;5096422;28;19953;-30
2022/11/09 14:16:24;;;;;;;;;;;14.50;99.90;;;;;;5105093;28;19999;-34
2022/11/09 14:19:08;;;;;;;;;;;14.50;99.90;;;;;;5107392;28;20403;-30
2022/11/09 14:21:44;;;;;;;;;;;14.50;99.90;;;;;;5099154;28;19907;-29
2022/11/09 14:24:20;;;;;;;;;;;14.40;99.90;;;;;;5102745;28;19912;-35
2022/11/09 14:27:01;;;;;;;;;;;14.40;99.90;;;;;;5105664;27;20290;-30
2022/11/09 14:29:31;;;;;;;;;;;14.40;99.90;;;;;;5118467;27;19908;-30
2022/11/09 14:31:58;;;;;;;;;;;14.40;99.90;;;;;;5100223;28;19967;-34